sensor_id;sensor_type;location;lat;lon;timestamp;P1;durP1;ratioP1;P2;durP2;ratioP2
12042;SDS011;6082;49.306;12.862;2023-04-06T00:01:38;2.77;;;2.23;;
12042;SDS011;6082;49.306;12.862;2023-04-06T00:04:04;5.53;;;3.10;;
12042;SDS011;6082;49.306;12.862;2023-04-06T00:06:31;5.13;;;2.60;;
12042;SDS011;6082;49.306;12.862;2023-04-06T00:08:57;4.30;;;1.73;;
12042;SDS011;6082;49.306;12.862;2023-04-06T00:11:23;2.63;;;2.40;;
12042;SDS011;6082;49.306;12.862;2023-04-06T00:13:50;3.37;;;2.07;;
12042;SDS011;6082;49.306;12.862;2023-04-06T00:16:16;3.50;;;2.57;;
12042;SDS011;6082;49.306;12.862;2023-04-06T00:18:42;3.67;;;1.77;;
12042;SDS011;6082;49.306;12.862;2023-04-06T00:23:35;2.90;;;1.87;;
12042;SDS011;6082;49.306;12.862;2023-04-06T00:26:01;4.30;;;2.40;;
12042;SDS011;6082;49.306;12.862;2023-04-06T00:28:27;4.43;;;2.20;;
12042;SDS011;6082;49.306;12.862;2023-04-06T00:30:55;2.27;;;1.90;;
12042;SDS011;6082;49.306;12.862;2023-04-06T00:33:21;2.40;;;1.63;;
12042;SDS011;6082;49.306;12.862;2023-04-06T00:35:48;4.33;;;2.00;;
12042;SDS011;6082;49.306;12.862;2023-04-06T00:38:14;4.03;;;2.10;;
12042;SDS011;6082;49.306;12.862;2023-04-06T00:40:41;2.90;;;1.87;;
12042;SDS011;6082;49.306;12.862;2023-04-06T00:43:07;2.90;;;1.77;;
12042;SDS011;6082;49.306;12.862;2023-04-06T00:45:34;3.00;;;1.93;;
12042;SDS011;6082;49.306;12.862;2023-04-06T00:48:00;2.37;;;1.90;;
12042;SDS011;6082;49.306;12.862;2023-04-06T00:50:30;4.43;;;2.43;;
12042;SDS011;6082;49.306;12.862;2023-04-06T00:52:56;2.87;;;2.10;;
12042;SDS011;6082;49.306;12.862;2023-04-06T00:55:22;2.23;;;1.53;;
12042;SDS011;6082;49.306;12.862;2023-04-06T00:57:48;3.17;;;2.10;;
12042;SDS011;6082;49.306;12.862;2023-04-06T01:00:16;6.13;;;1.97;;
12042;SDS011;6082;49.306;12.862;2023-04-06T01:02:42;2.57;;;2.10;;
12042;SDS011;6082;49.306;12.862;2023-04-06T01:05:10;2.70;;;2.07;;
12042;SDS011;6082;49.306;12.862;2023-04-06T01:07:36;5.73;;;2.00;;
12042;SDS011;6082;49.306;12.862;2023-04-06T01:10:03;5.00;;;2.07;;
12042;SDS011;6082;49.306;12.862;2023-04-06T01:12:29;2.27;;;1.97;;
12042;SDS011;6082;49.306;12.862;2023-04-06T01:14:55;3.43;;;1.63;;
12042;SDS011;6082;49.306;12.862;2023-04-06T01:17:21;2.03;;;1.70;;
12042;SDS011;6082;49.306;12.862;2023-04-06T01:19:48;5.87;;;2.47;;
12042;SDS011;6082;49.306;12.862;2023-04-06T01:22:18;2.90;;;1.83;;
12042;SDS011;6082;49.306;12.862;2023-04-06T01:24:45;3.17;;;1.90;;
12042;SDS011;6082;49.306;12.862;2023-04-06T01:27:11;1.77;;;1.47;;
12042;SDS011;6082;49.306;12.862;2023-04-06T01:29:38;5.57;;;1.90;;
12042;SDS011;6082;49.306;12.862;2023-04-06T01:32:08;3.17;;;1.87;;
12042;SDS011;6082;49.306;12.862;2023-04-06T01:34:34;2.47;;;2.20;;
12042;SDS011;6082;49.306;12.862;2023-04-06T01:37:00;2.67;;;1.80;;
12042;SDS011;6082;49.306;12.862;2023-04-06T01:39:27;2.70;;;1.67;;
12042;SDS011;6082;49.306;12.862;2023-04-06T01:41:53;4.77;;;2.43;;
12042;SDS011;6082;49.306;12.862;2023-04-06T01:44:19;4.07;;;2.03;;
12042;SDS011;6082;49.306;12.862;2023-04-06T01:46:45;1.60;;;1.50;;
12042;SDS011;6082;49.306;12.862;2023-04-06T01:49:14;2.00;;;1.80;;
12042;SDS011;6082;49.306;12.862;2023-04-06T01:51:40;2.37;;;1.33;;
12042;SDS011;6082;49.306;12.862;2023-04-06T01:54:06;2.80;;;1.80;;
12042;SDS011;6082;49.306;12.862;2023-04-06T01:56:33;3.33;;;1.80;;
12042;SDS011;6082;49.306;12.862;2023-04-06T01:58:59;2.00;;;1.50;;
12042;SDS011;6082;49.306;12.862;2023-04-06T02:01:25;4.30;;;1.30;;
12042;SDS011;6082;49.306;12.862;2023-04-06T02:03:51;1.27;;;1.17;;
12042;SDS011;6082;49.306;12.862;2023-04-06T02:06:17;1.73;;;1.50;;
12042;SDS011;6082;49.306;12.862;2023-04-06T02:08:44;3.03;;;1.37;;
12042;SDS011;6082;49.306;12.862;2023-04-06T02:11:10;3.60;;;2.17;;
12042;SDS011;6082;49.306;12.862;2023-04-06T02:13:36;2.17;;;1.97;;
12042;SDS011;6082;49.306;12.862;2023-04-06T02:16:02;1.67;;;1.37;;
12042;SDS011;6082;49.306;12.862;2023-04-06T02:18:31;2.70;;;2.50;;
12042;SDS011;6082;49.306;12.862;2023-04-06T02:20:57;4.30;;;2.33;;
12042;SDS011;6082;49.306;12.862;2023-04-06T02:23:23;2.63;;;1.40;;
12042;SDS011;6082;49.306;12.862;2023-04-06T02:25:53;4.00;;;1.73;;
12042;SDS011;6082;49.306;12.862;2023-04-06T02:28:19;2.57;;;1.97;;
12042;SDS011;6082;49.306;12.862;2023-04-06T02:30:45;3.77;;;1.60;;
12042;SDS011;6082;49.306;12.862;2023-04-06T02:33:11;3.33;;;2.07;;
12042;SDS011;6082;49.306;12.862;2023-04-06T02:35:37;2.43;;;2.07;;
12042;SDS011;6082;49.306;12.862;2023-04-06T02:38:03;4.13;;;2.30;;
12042;SDS011;6082;49.306;12.862;2023-04-06T02:40:29;1.77;;;1.57;;
12042;SDS011;6082;49.306;12.862;2023-04-06T02:42:56;1.70;;;1.60;;
12042;SDS011;6082;49.306;12.862;2023-04-06T02:45:22;4.57;;;1.80;;
12042;SDS011;6082;49.306;12.862;2023-04-06T02:47:48;1.50;;;1.40;;
12042;SDS011;6082;49.306;12.862;2023-04-06T02:50:14;3.13;;;1.63;;
12042;SDS011;6082;49.306;12.862;2023-04-06T02:52:40;1.80;;;1.40;;
12042;SDS011;6082;49.306;12.862;2023-04-06T02:55:07;3.27;;;1.50;;
12042;SDS011;6082;49.306;12.862;2023-04-06T02:57:33;2.67;;;1.80;;
12042;SDS011;6082;49.306;12.862;2023-04-06T02:59:59;1.83;;;1.37;;
12042;SDS011;6082;49.306;12.862;2023-04-06T03:02:25;2.33;;;1.90;;
12042;SDS011;6082;49.306;12.862;2023-04-06T03:04:51;3.33;;;2.30;;
12042;SDS011;6082;49.306;12.862;2023-04-06T03:07:17;2.53;;;1.47;;
12042;SDS011;6082;49.306;12.862;2023-04-06T03:09:44;1.93;;;1.60;;
12042;SDS011;6082;49.306;12.862;2023-04-06T03:12:10;1.37;;;1.23;;
12042;SDS011;6082;49.306;12.862;2023-04-06T03:14:36;3.23;;;1.93;;
12042;SDS011;6082;49.306;12.862;2023-04-06T03:17:02;3.67;;;1.63;;
12042;SDS011;6082;49.306;12.862;2023-04-06T03:19:28;1.43;;;1.33;;
12042;SDS011;6082;49.306;12.862;2023-04-06T03:21:55;3.53;;;2.07;;
12042;SDS011;6082;49.306;12.862;2023-04-06T03:24:21;2.83;;;2.17;;
12042;SDS011;6082;49.306;12.862;2023-04-06T03:26:47;1.53;;;1.43;;
12042;SDS011;6082;49.306;12.862;2023-04-06T03:29:13;2.10;;;1.70;;
12042;SDS011;6082;49.306;12.862;2023-04-06T03:31:39;2.63;;;1.67;;
12042;SDS011;6082;49.306;12.862;2023-04-06T03:34:05;3.37;;;2.37;;
12042;SDS011;6082;49.306;12.862;2023-04-06T03:36:32;2.33;;;1.90;;
12042;SDS011;6082;49.306;12.862;2023-04-06T03:38:58;3.53;;;2.23;;
12042;SDS011;6082;49.306;12.862;2023-04-06T03:41:24;2.60;;;1.97;;
12042;SDS011;6082;49.306;12.862;2023-04-06T03:43:50;1.67;;;1.30;;
12042;SDS011;6082;49.306;12.862;2023-04-06T03:46:16;3.90;;;1.70;;
12042;SDS011;6082;49.306;12.862;2023-04-06T03:48:42;3.93;;;2.23;;
12042;SDS011;6082;49.306;12.862;2023-04-06T03:51:08;2.20;;;1.50;;
12042;SDS011;6082;49.306;12.862;2023-04-06T03:53:34;2.90;;;1.67;;
12042;SDS011;6082;49.306;12.862;2023-04-06T03:56:02;3.03;;;1.90;;
12042;SDS011;6082;49.306;12.862;2023-04-06T03:58:28;2.37;;;1.40;;
12042;SDS011;6082;49.306;12.862;2023-04-06T04:00:54;2.50;;;1.90;;
12042;SDS011;6082;49.306;12.862;2023-04-06T04:03:20;2.77;;;1.70;;
12042;SDS011;6082;49.306;12.862;2023-04-06T04:05:48;3.30;;;2.07;;
12042;SDS011;6082;49.306;12.862;2023-04-06T04:08:15;2.37;;;1.80;;
12042;SDS011;6082;49.306;12.862;2023-04-06T04:10:41;2.77;;;1.67;;
12042;SDS011;6082;49.306;12.862;2023-04-06T04:13:07;2.77;;;1.90;;
12042;SDS011;6082;49.306;12.862;2023-04-06T04:15:34;3.23;;;1.90;;
12042;SDS011;6082;49.306;12.862;2023-04-06T04:18:00;1.67;;;1.43;;
12042;SDS011;6082;49.306;12.862;2023-04-06T04:20:26;2.23;;;2.00;;
12042;SDS011;6082;49.306;12.862;2023-04-06T04:22:53;4.20;;;1.97;;
12042;SDS011;6082;49.306;12.862;2023-04-06T04:25:19;1.77;;;1.57;;
12042;SDS011;6082;49.306;12.862;2023-04-06T04:27:46;2.50;;;1.67;;
12042;SDS011;6082;49.306;12.862;2023-04-06T04:30:12;2.63;;;2.00;;
12042;SDS011;6082;49.306;12.862;2023-04-06T04:32:38;3.23;;;1.93;;
12042;SDS011;6082;49.306;12.862;2023-04-06T04:35:04;2.57;;;2.07;;
12042;SDS011;6082;49.306;12.862;2023-04-06T04:37:30;2.80;;;1.87;;
12042;SDS011;6082;49.306;12.862;2023-04-06T04:39:56;2.13;;;1.47;;
12042;SDS011;6082;49.306;12.862;2023-04-06T04:42:23;2.43;;;1.90;;
12042;SDS011;6082;49.306;12.862;2023-04-06T04:44:49;2.77;;;1.87;;
12042;SDS011;6082;49.306;12.862;2023-04-06T04:47:15;3.27;;;1.87;;
12042;SDS011;6082;49.306;12.862;2023-04-06T04:49:41;1.90;;;1.20;;
12042;SDS011;6082;49.306;12.862;2023-04-06T04:52:07;2.43;;;1.63;;
12042;SDS011;6082;49.306;12.862;2023-04-06T04:54:33;3.63;;;2.07;;
12042;SDS011;6082;49.306;12.862;2023-04-06T04:56:59;2.10;;;1.83;;
12042;SDS011;6082;49.306;12.862;2023-04-06T04:59:25;1.53;;;1.43;;
12042;SDS011;6082;49.306;12.862;2023-04-06T05:01:52;2.87;;;1.73;;
12042;SDS011;6082;49.306;12.862;2023-04-06T05:04:18;3.60;;;2.13;;
12042;SDS011;6082;49.306;12.862;2023-04-06T05:06:44;3.10;;;2.00;;
12042;SDS011;6082;49.306;12.862;2023-04-06T05:09:10;7.13;;;2.07;;
12042;SDS011;6082;49.306;12.862;2023-04-06T05:11:36;2.97;;;1.93;;
12042;SDS011;6082;49.306;12.862;2023-04-06T05:14:03;1.80;;;1.70;;
12042;SDS011;6082;49.306;12.862;2023-04-06T05:16:29;2.97;;;2.00;;
12042;SDS011;6082;49.306;12.862;2023-04-06T05:18:55;2.83;;;2.30;;
12042;SDS011;6082;49.306;12.862;2023-04-06T05:21:21;3.20;;;2.33;;
12042;SDS011;6082;49.306;12.862;2023-04-06T05:23:48;8.77;;;3.27;;
12042;SDS011;6082;49.306;12.862;2023-04-06T05:26:14;3.10;;;2.37;;
12042;SDS011;6082;49.306;12.862;2023-04-06T05:28:40;5.37;;;3.40;;
12042;SDS011;6082;49.306;12.862;2023-04-06T05:31:07;4.27;;;3.23;;
12042;SDS011;6082;49.306;12.862;2023-04-06T05:33:33;2.77;;;2.23;;
12042;SDS011;6082;49.306;12.862;2023-04-06T05:36:00;4.77;;;3.20;;
12042;SDS011;6082;49.306;12.862;2023-04-06T05:38:26;4.57;;;2.70;;
12042;SDS011;6082;49.306;12.862;2023-04-06T05:40:52;4.67;;;2.60;;
12042;SDS011;6082;49.306;12.862;2023-04-06T05:43:18;5.30;;;2.70;;
12042;SDS011;6082;49.306;12.862;2023-04-06T05:45:44;4.17;;;2.73;;
12042;SDS011;6082;49.306;12.862;2023-04-06T05:48:10;2.57;;;2.37;;
12042;SDS011;6082;49.306;12.862;2023-04-06T05:50:36;5.00;;;3.93;;
12042;SDS011;6082;49.306;12.862;2023-04-06T05:53:02;5.67;;;2.53;;
12042;SDS011;6082;49.306;12.862;2023-04-06T05:55:29;2.50;;;2.30;;
12042;SDS011;6082;49.306;12.862;2023-04-06T05:57:55;3.70;;;2.73;;
12042;SDS011;6082;49.306;12.862;2023-04-06T06:00:21;5.90;;;2.60;;
12042;SDS011;6082;49.306;12.862;2023-04-06T06:02:47;3.53;;;2.17;;
12042;SDS011;6082;49.306;12.862;2023-04-06T06:05:13;3.23;;;2.80;;
12042;SDS011;6082;49.306;12.862;2023-04-06T06:07:40;4.67;;;3.73;;
12042;SDS011;6082;49.306;12.862;2023-04-06T06:10:06;7.90;;;5.20;;
12042;SDS011;6082;49.306;12.862;2023-04-06T06:12:32;7.80;;;5.40;;
12042;SDS011;6082;49.306;12.862;2023-04-06T06:14:58;7.67;;;4.77;;
12042;SDS011;6082;49.306;12.862;2023-04-06T06:17:25;5.40;;;4.30;;
12042;SDS011;6082;49.306;12.862;2023-04-06T06:19:51;8.87;;;3.97;;
12042;SDS011;6082;49.306;12.862;2023-04-06T06:22:17;5.93;;;3.87;;
12042;SDS011;6082;49.306;12.862;2023-04-06T06:24:43;5.77;;;3.93;;
12042;SDS011;6082;49.306;12.862;2023-04-06T06:27:10;4.93;;;3.07;;
12042;SDS011;6082;49.306;12.862;2023-04-06T06:29:36;3.90;;;3.03;;
12042;SDS011;6082;49.306;12.862;2023-04-06T06:32:02;5.50;;;3.97;;
12042;SDS011;6082;49.306;12.862;2023-04-06T06:34:28;4.57;;;3.80;;
12042;SDS011;6082;49.306;12.862;2023-04-06T06:36:54;6.23;;;3.40;;
12042;SDS011;6082;49.306;12.862;2023-04-06T06:39:21;12.23;;;5.07;;
12042;SDS011;6082;49.306;12.862;2023-04-06T06:41:47;10.93;;;5.53;;
12042;SDS011;6082;49.306;12.862;2023-04-06T06:44:13;7.83;;;4.70;;
12042;SDS011;6082;49.306;12.862;2023-04-06T06:46:39;6.70;;;4.60;;
12042;SDS011;6082;49.306;12.862;2023-04-06T06:49:05;7.03;;;4.37;;
12042;SDS011;6082;49.306;12.862;2023-04-06T06:51:31;4.43;;;3.67;;
12042;SDS011;6082;49.306;12.862;2023-04-06T06:53:57;4.80;;;3.97;;
12042;SDS011;6082;49.306;12.862;2023-04-06T06:56:23;4.37;;;3.47;;
12042;SDS011;6082;49.306;12.862;2023-04-06T06:58:51;7.83;;;3.43;;
12042;SDS011;6082;49.306;12.862;2023-04-06T07:01:17;7.13;;;3.57;;
12042;SDS011;6082;49.306;12.862;2023-04-06T07:03:43;4.60;;;3.27;;
12042;SDS011;6082;49.306;12.862;2023-04-06T07:06:09;3.90;;;3.27;;
12042;SDS011;6082;49.306;12.862;2023-04-06T07:08:36;5.37;;;3.63;;
12042;SDS011;6082;49.306;12.862;2023-04-06T07:11:02;6.20;;;4.03;;
12042;SDS011;6082;49.306;12.862;2023-04-06T07:13:28;7.63;;;3.80;;
12042;SDS011;6082;49.306;12.862;2023-04-06T07:15:54;8.53;;;5.07;;
12042;SDS011;6082;49.306;12.862;2023-04-06T07:18:20;9.10;;;4.47;;
12042;SDS011;6082;49.306;12.862;2023-04-06T07:20:46;6.63;;;4.50;;
12042;SDS011;6082;49.306;12.862;2023-04-06T07:23:13;7.37;;;4.10;;
12042;SDS011;6082;49.306;12.862;2023-04-06T07:25:39;8.10;;;4.63;;
12042;SDS011;6082;49.306;12.862;2023-04-06T07:28:08;7.63;;;4.70;;
12042;SDS011;6082;49.306;12.862;2023-04-06T07:30:34;9.23;;;4.83;;
12042;SDS011;6082;49.306;12.862;2023-04-06T07:33:00;7.33;;;4.83;;
12042;SDS011;6082;49.306;12.862;2023-04-06T07:35:27;8.77;;;5.30;;
12042;SDS011;6082;49.306;12.862;2023-04-06T07:37:55;8.37;;;4.20;;
12042;SDS011;6082;49.306;12.862;2023-04-06T07:40:24;6.40;;;4.93;;
12042;SDS011;6082;49.306;12.862;2023-04-06T07:42:51;8.67;;;4.47;;
12042;SDS011;6082;49.306;12.862;2023-04-06T07:45:18;8.07;;;4.23;;
12042;SDS011;6082;49.306;12.862;2023-04-06T07:47:44;7.20;;;4.07;;
12042;SDS011;6082;49.306;12.862;2023-04-06T07:50:10;3.83;;;3.43;;
12042;SDS011;6082;49.306;12.862;2023-04-06T07:52:37;7.07;;;4.13;;
12042;SDS011;6082;49.306;12.862;2023-04-06T07:55:03;4.10;;;3.37;;
12042;SDS011;6082;49.306;12.862;2023-04-06T07:57:29;5.87;;;4.17;;
12042;SDS011;6082;49.306;12.862;2023-04-06T07:59:55;5.20;;;3.43;;
12042;SDS011;6082;49.306;12.862;2023-04-06T08:02:21;5.50;;;3.53;;
12042;SDS011;6082;49.306;12.862;2023-04-06T08:04:48;5.03;;;3.00;;
12042;SDS011;6082;49.306;12.862;2023-04-06T08:07:14;3.83;;;2.73;;
12042;SDS011;6082;49.306;12.862;2023-04-06T08:09:40;4.20;;;2.67;;
12042;SDS011;6082;49.306;12.862;2023-04-06T08:12:06;4.83;;;3.27;;
12042;SDS011;6082;49.306;12.862;2023-04-06T08:14:32;5.33;;;2.80;;
12042;SDS011;6082;49.306;12.862;2023-04-06T08:16:58;5.80;;;3.10;;
12042;SDS011;6082;49.306;12.862;2023-04-06T08:19:24;4.83;;;2.83;;
12042;SDS011;6082;49.306;12.862;2023-04-06T08:21:50;2.63;;;2.03;;
12042;SDS011;6082;49.306;12.862;2023-04-06T08:24:16;3.93;;;2.50;;
12042;SDS011;6082;49.306;12.862;2023-04-06T08:26:42;5.63;;;2.50;;
12042;SDS011;6082;49.306;12.862;2023-04-06T08:29:09;5.37;;;2.80;;
12042;SDS011;6082;49.306;12.862;2023-04-06T08:31:35;5.00;;;3.00;;
12042;SDS011;6082;49.306;12.862;2023-04-06T08:34:04;5.53;;;3.23;;
12042;SDS011;6082;49.306;12.862;2023-04-06T08:36:31;5.30;;;3.13;;
12042;SDS011;6082;49.306;12.862;2023-04-06T08:38:58;3.87;;;2.97;;
12042;SDS011;6082;49.306;12.862;2023-04-06T08:41:24;7.47;;;3.37;;
12042;SDS011;6082;49.306;12.862;2023-04-06T08:46:17;4.33;;;2.87;;
12042;SDS011;6082;49.306;12.862;2023-04-06T08:48:43;5.37;;;3.00;;
12042;SDS011;6082;49.306;12.862;2023-04-06T08:51:10;3.80;;;2.73;;
12042;SDS011;6082;49.306;12.862;2023-04-06T08:53:39;5.17;;;3.07;;
12042;SDS011;6082;49.306;12.862;2023-04-06T08:56:05;5.23;;;3.53;;
12042;SDS011;6082;49.306;12.862;2023-04-06T08:58:34;4.63;;;2.77;;
12042;SDS011;6082;49.306;12.862;2023-04-06T09:01:00;3.27;;;2.87;;
12042;SDS011;6082;49.306;12.862;2023-04-06T09:03:30;4.83;;;2.80;;
12042;SDS011;6082;49.306;12.862;2023-04-06T09:05:57;4.40;;;2.90;;
12042;SDS011;6082;49.306;12.862;2023-04-06T09:08:24;4.37;;;3.07;;
12042;SDS011;6082;49.306;12.862;2023-04-06T09:10:51;4.43;;;2.73;;
12042;SDS011;6082;49.306;12.862;2023-04-06T09:13:17;3.37;;;2.67;;
12042;SDS011;6082;49.306;12.862;2023-04-06T09:15:43;3.70;;;2.70;;
12042;SDS011;6082;49.306;12.862;2023-04-06T09:18:09;5.03;;;3.43;;
12042;SDS011;6082;49.306;12.862;2023-04-06T09:20:35;3.60;;;2.73;;
12042;SDS011;6082;49.306;12.862;2023-04-06T09:23:01;4.33;;;3.00;;
12042;SDS011;6082;49.306;12.862;2023-04-06T09:25:28;4.77;;;3.10;;
12042;SDS011;6082;49.306;12.862;2023-04-06T09:28:04;3.30;;;2.90;;
12042;SDS011;6082;49.306;12.862;2023-04-06T09:30:32;5.50;;;3.60;;
12042;SDS011;6082;49.306;12.862;2023-04-06T09:32:58;5.13;;;3.30;;
12042;SDS011;6082;49.306;12.862;2023-04-06T09:35:24;3.33;;;2.70;;
12042;SDS011;6082;49.306;12.862;2023-04-06T09:37:56;4.77;;;3.20;;
12042;SDS011;6082;49.306;12.862;2023-04-06T09:40:22;4.50;;;2.80;;
12042;SDS011;6082;49.306;12.862;2023-04-06T09:42:49;3.87;;;3.27;;
12042;SDS011;6082;49.306;12.862;2023-04-06T09:45:18;4.43;;;3.23;;
12042;SDS011;6082;49.306;12.862;2023-04-06T09:47:44;3.73;;;3.20;;
12042;SDS011;6082;49.306;12.862;2023-04-06T09:50:11;5.03;;;3.00;;
12042;SDS011;6082;49.306;12.862;2023-04-06T09:52:40;3.67;;;2.87;;
12042;SDS011;6082;49.306;12.862;2023-04-06T09:55:07;4.27;;;2.80;;
12042;SDS011;6082;49.306;12.862;2023-04-06T10:00:06;3.90;;;3.40;;
12042;SDS011;6082;49.306;12.862;2023-04-06T10:05:30;3.83;;;2.93;;
12042;SDS011;6082;49.306;12.862;2023-04-06T10:08:00;4.57;;;3.37;;
12042;SDS011;6082;49.306;12.862;2023-04-06T10:10:28;4.80;;;3.33;;
12042;SDS011;6082;49.306;12.862;2023-04-06T10:12:58;5.07;;;3.53;;
12042;SDS011;6082;49.306;12.862;2023-04-06T10:15:25;4.90;;;3.30;;
12042;SDS011;6082;49.306;12.862;2023-04-06T10:17:51;5.40;;;3.40;;
12042;SDS011;6082;49.306;12.862;2023-04-06T10:20:25;4.50;;;3.37;;
12042;SDS011;6082;49.306;12.862;2023-04-06T10:22:55;4.23;;;3.00;;
12042;SDS011;6082;49.306;12.862;2023-04-06T10:25:27;5.50;;;3.50;;
12042;SDS011;6082;49.306;12.862;2023-04-06T10:28:30;5.90;;;3.60;;
12042;SDS011;6082;49.306;12.862;2023-04-06T10:30:46;4.20;;;3.43;;
12042;SDS011;6082;49.306;12.862;2023-04-06T10:33:13;4.60;;;3.07;;
12042;SDS011;6082;49.306;12.862;2023-04-06T10:35:40;5.40;;;3.33;;
12042;SDS011;6082;49.306;12.862;2023-04-06T10:38:06;5.67;;;4.00;;
12042;SDS011;6082;49.306;12.862;2023-04-06T10:40:36;4.33;;;3.60;;
12042;SDS011;6082;49.306;12.862;2023-04-06T10:43:13;4.73;;;3.57;;
12042;SDS011;6082;49.306;12.862;2023-04-06T10:45:40;4.60;;;3.40;;
12042;SDS011;6082;49.306;12.862;2023-04-06T10:48:14;5.23;;;3.97;;
12042;SDS011;6082;49.306;12.862;2023-04-06T10:50:41;4.47;;;3.40;;
12042;SDS011;6082;49.306;12.862;2023-04-06T10:53:08;4.83;;;3.83;;
12042;SDS011;6082;49.306;12.862;2023-04-06T10:55:34;4.90;;;3.30;;
12042;SDS011;6082;49.306;12.862;2023-04-06T10:58:00;4.80;;;3.57;;
12042;SDS011;6082;49.306;12.862;2023-04-06T11:00:26;4.53;;;3.70;;
12042;SDS011;6082;49.306;12.862;2023-04-06T11:02:58;5.97;;;4.30;;
12042;SDS011;6082;49.306;12.862;2023-04-06T11:05:25;5.07;;;3.63;;
12042;SDS011;6082;49.306;12.862;2023-04-06T11:07:51;4.43;;;3.80;;
12042;SDS011;6082;49.306;12.862;2023-04-06T11:10:21;5.57;;;4.10;;
12042;SDS011;6082;49.306;12.862;2023-04-06T11:12:57;5.83;;;3.70;;
12042;SDS011;6082;49.306;12.862;2023-04-06T11:15:23;4.97;;;3.53;;
12042;SDS011;6082;49.306;12.862;2023-04-06T11:17:49;3.57;;;2.93;;
12042;SDS011;6082;49.306;12.862;2023-04-06T11:20:16;5.43;;;3.60;;
12042;SDS011;6082;49.306;12.862;2023-04-06T11:22:48;4.33;;;3.50;;
12042;SDS011;6082;49.306;12.862;2023-04-06T11:25:14;4.50;;;3.60;;
12042;SDS011;6082;49.306;12.862;2023-04-06T11:27:41;5.00;;;3.77;;
12042;SDS011;6082;49.306;12.862;2023-04-06T11:30:08;6.33;;;3.70;;
12042;SDS011;6082;49.306;12.862;2023-04-06T11:32:44;6.47;;;3.70;;
12042;SDS011;6082;49.306;12.862;2023-04-06T11:35:23;4.23;;;3.20;;
12042;SDS011;6082;49.306;12.862;2023-04-06T11:37:49;5.97;;;3.40;;
12042;SDS011;6082;49.306;12.862;2023-04-06T11:40:19;4.23;;;3.63;;
12042;SDS011;6082;49.306;12.862;2023-04-06T11:42:51;4.50;;;3.60;;
12042;SDS011;6082;49.306;12.862;2023-04-06T11:45:17;6.67;;;3.73;;
12042;SDS011;6082;49.306;12.862;2023-04-06T11:47:43;5.50;;;3.00;;
12042;SDS011;6082;49.306;12.862;2023-04-06T11:50:10;5.47;;;3.97;;
12042;SDS011;6082;49.306;12.862;2023-04-06T11:52:37;3.57;;;3.20;;
12042;SDS011;6082;49.306;12.862;2023-04-06T11:55:14;6.00;;;3.50;;
12042;SDS011;6082;49.306;12.862;2023-04-06T11:57:41;4.93;;;3.53;;
12042;SDS011;6082;49.306;12.862;2023-04-06T12:00:07;7.23;;;3.93;;
12042;SDS011;6082;49.306;12.862;2023-04-06T12:02:45;5.17;;;3.63;;
12042;SDS011;6082;49.306;12.862;2023-04-06T12:05:11;4.50;;;3.40;;
12042;SDS011;6082;49.306;12.862;2023-04-06T12:07:37;4.60;;;3.00;;
12042;SDS011;6082;49.306;12.862;2023-04-06T12:10:03;4.90;;;3.40;;
12042;SDS011;6082;49.306;12.862;2023-04-06T12:12:30;5.47;;;3.27;;
12042;SDS011;6082;49.306;12.862;2023-04-06T12:14:56;4.43;;;3.50;;
12042;SDS011;6082;49.306;12.862;2023-04-06T12:17:22;4.07;;;3.00;;
12042;SDS011;6082;49.306;12.862;2023-04-06T12:19:48;5.03;;;3.30;;
12042;SDS011;6082;49.306;12.862;2023-04-06T12:22:15;4.50;;;3.33;;
12042;SDS011;6082;49.306;12.862;2023-04-06T12:24:41;6.20;;;3.77;;
12042;SDS011;6082;49.306;12.862;2023-04-06T12:27:07;6.03;;;3.97;;
12042;SDS011;6082;49.306;12.862;2023-04-06T12:29:33;5.67;;;3.40;;
12042;SDS011;6082;49.306;12.862;2023-04-06T12:32:00;4.10;;;3.70;;
12042;SDS011;6082;49.306;12.862;2023-04-06T12:34:26;4.33;;;3.33;;
12042;SDS011;6082;49.306;12.862;2023-04-06T12:36:52;5.13;;;3.67;;
12042;SDS011;6082;49.306;12.862;2023-04-06T12:39:18;5.40;;;3.33;;
12042;SDS011;6082;49.306;12.862;2023-04-06T12:41:45;5.90;;;3.60;;
12042;SDS011;6082;49.306;12.862;2023-04-06T12:44:11;5.67;;;3.87;;
12042;SDS011;6082;49.306;12.862;2023-04-06T12:46:37;4.37;;;3.53;;
12042;SDS011;6082;49.306;12.862;2023-04-06T12:49:03;6.20;;;3.70;;
12042;SDS011;6082;49.306;12.862;2023-04-06T12:51:30;5.23;;;3.60;;
12042;SDS011;6082;49.306;12.862;2023-04-06T12:53:56;4.63;;;3.13;;
12042;SDS011;6082;49.306;12.862;2023-04-06T12:56:23;5.23;;;3.30;;
12042;SDS011;6082;49.306;12.862;2023-04-06T12:58:50;4.60;;;3.40;;
12042;SDS011;6082;49.306;12.862;2023-04-06T13:01:16;4.20;;;3.20;;
12042;SDS011;6082;49.306;12.862;2023-04-06T13:03:43;5.17;;;3.63;;
12042;SDS011;6082;49.306;12.862;2023-04-06T13:06:10;7.33;;;3.20;;
12042;SDS011;6082;49.306;12.862;2023-04-06T13:08:37;5.27;;;3.07;;
12042;SDS011;6082;49.306;12.862;2023-04-06T13:11:03;5.57;;;3.30;;
12042;SDS011;6082;49.306;12.862;2023-04-06T13:13:30;4.20;;;3.27;;
12042;SDS011;6082;49.306;12.862;2023-04-06T13:16:00;6.27;;;3.60;;
12042;SDS011;6082;49.306;12.862;2023-04-06T13:18:27;5.67;;;3.50;;
12042;SDS011;6082;49.306;12.862;2023-04-06T13:20:55;4.87;;;3.90;;
12042;SDS011;6082;49.306;12.862;2023-04-06T13:23:21;5.80;;;3.50;;
12042;SDS011;6082;49.306;12.862;2023-04-06T13:25:47;4.57;;;3.63;;
12042;SDS011;6082;49.306;12.862;2023-04-06T13:28:13;4.43;;;3.30;;
12042;SDS011;6082;49.306;12.862;2023-04-06T13:30:39;4.10;;;3.43;;
12042;SDS011;6082;49.306;12.862;2023-04-06T13:33:05;3.30;;;3.00;;
12042;SDS011;6082;49.306;12.862;2023-04-06T13:35:32;4.47;;;2.93;;
12042;SDS011;6082;49.306;12.862;2023-04-06T13:38:00;5.50;;;3.53;;
12042;SDS011;6082;49.306;12.862;2023-04-06T13:40:29;4.47;;;3.33;;
12042;SDS011;6082;49.306;12.862;2023-04-06T13:42:56;4.10;;;2.93;;
12042;SDS011;6082;49.306;12.862;2023-04-06T13:45:22;4.90;;;3.17;;
12042;SDS011;6082;49.306;12.862;2023-04-06T13:47:48;4.00;;;3.27;;
12042;SDS011;6082;49.306;12.862;2023-04-06T13:50:14;5.03;;;3.67;;
12042;SDS011;6082;49.306;12.862;2023-04-06T13:52:40;4.00;;;3.33;;
12042;SDS011;6082;49.306;12.862;2023-04-06T13:55:07;5.30;;;3.43;;
12042;SDS011;6082;49.306;12.862;2023-04-06T13:57:33;3.20;;;2.90;;
12042;SDS011;6082;49.306;12.862;2023-04-06T14:00:01;3.53;;;3.07;;
12042;SDS011;6082;49.306;12.862;2023-04-06T14:02:27;3.53;;;3.13;;
12042;SDS011;6082;49.306;12.862;2023-04-06T14:04:53;5.77;;;3.60;;
12042;SDS011;6082;49.306;12.862;2023-04-06T14:07:20;5.07;;;3.07;;
12042;SDS011;6082;49.306;12.862;2023-04-06T14:09:47;4.13;;;3.03;;
12042;SDS011;6082;49.306;12.862;2023-04-06T14:12:13;3.80;;;3.10;;
12042;SDS011;6082;49.306;12.862;2023-04-06T14:14:39;7.87;;;3.40;;
12042;SDS011;6082;49.306;12.862;2023-04-06T14:17:05;4.33;;;3.10;;
12042;SDS011;6082;49.306;12.862;2023-04-06T14:19:31;4.30;;;3.30;;
12042;SDS011;6082;49.306;12.862;2023-04-06T14:21:57;5.67;;;4.00;;
12042;SDS011;6082;49.306;12.862;2023-04-06T14:24:24;4.20;;;3.30;;
12042;SDS011;6082;49.306;12.862;2023-04-06T14:26:50;3.93;;;3.17;;
12042;SDS011;6082;49.306;12.862;2023-04-06T14:29:16;4.07;;;3.07;;
12042;SDS011;6082;49.306;12.862;2023-04-06T14:31:42;4.07;;;3.13;;
12042;SDS011;6082;49.306;12.862;2023-04-06T14:34:08;5.60;;;3.20;;
12042;SDS011;6082;49.306;12.862;2023-04-06T14:36:34;3.50;;;3.07;;
12042;SDS011;6082;49.306;12.862;2023-04-06T14:39:04;3.70;;;3.23;;
12042;SDS011;6082;49.306;12.862;2023-04-06T14:41:31;4.90;;;3.40;;
12042;SDS011;6082;49.306;12.862;2023-04-06T14:43:57;4.13;;;3.23;;
12042;SDS011;6082;49.306;12.862;2023-04-06T14:46:23;3.90;;;2.97;;
12042;SDS011;6082;49.306;12.862;2023-04-06T14:48:50;5.00;;;3.10;;
12042;SDS011;6082;49.306;12.862;2023-04-06T14:51:16;4.03;;;3.13;;
12042;SDS011;6082;49.306;12.862;2023-04-06T14:53:43;3.60;;;3.20;;
12042;SDS011;6082;49.306;12.862;2023-04-06T14:56:09;4.40;;;3.00;;